Terminal Aerodrome Forecast
Issued by NWS Amarillo, TX

Home | Current Version | Previous Version | Text Only | Print | Product List | Glossary On
Versions: 1 2 3 4 5 6 7 8 9 10 11 12
487
FTUS44 KAMA 121120
TAFGUY
TAF
KGUY 121120Z 1212/1312 35008KT P6SM FEW200
     FM121800 12010KT P6SM SCT200
     FM130800 15008KT 5SM BR FEW300=

USA.gov is the U.S. government's official web portal to all federal, state and local government web resources and services.